sensor_id;sensor_type;location;lat;lon;timestamp;temperature;humidity
52187;DHT22;38161;53.020;6.598;2023-05-10T00:01:24;13.10;99.90
52187;DHT22;38161;53.020;6.598;2023-05-10T00:03:50;13.20;99.90
52187;DHT22;38161;53.020;6.598;2023-05-10T00:06:16;13.20;99.90
52187;DHT22;38161;53.020;6.598;2023-05-10T00:08:43;13.10;99.90
52187;DHT22;38161;53.020;6.598;2023-05-10T00:11:09;13.10;99.90
52187;DHT22;38161;53.020;6.598;2023-05-10T00:13:34;13.10;99.90
52187;DHT22;38161;53.020;6.598;2023-05-10T00:16:00;13.10;99.90
52187;DHT22;38161;53.020;6.598;2023-05-10T00:18:26;13.10;99.90
52187;DHT22;38161;53.020;6.598;2023-05-10T00:20:52;13.00;99.90
52187;DHT22;38161;53.020;6.598;2023-05-10T00:23:17;13.00;99.90
52187;DHT22;38161;53.020;6.598;2023-05-10T00:25:43;13.00;99.90
52187;DHT22;38161;53.020;6.598;2023-05-10T00:28:09;13.00;99.90
52187;DHT22;38161;53.020;6.598;2023-05-10T00:30:35;13.00;99.90
52187;DHT22;38161;53.020;6.598;2023-05-10T00:33:00;13.00;99.90
52187;DHT22;38161;53.020;6.598;2023-05-10T00:35:26;13.00;99.90
52187;DHT22;38161;53.020;6.598;2023-05-10T00:37:52;13.00;99.90
52187;DHT22;38161;53.020;6.598;2023-05-10T00:40:17;13.00;99.90
52187;DHT22;38161;53.020;6.598;2023-05-10T00:42:43;13.10;99.90
52187;DHT22;38161;53.020;6.598;2023-05-10T00:45:09;13.00;99.90
52187;DHT22;38161;53.020;6.598;2023-05-10T00:47:35;13.00;99.90
52187;DHT22;38161;53.020;6.598;2023-05-10T00:50:01;13.00;99.90
52187;DHT22;38161;53.020;6.598;2023-05-10T00:52:28;13.00;99.90
52187;DHT22;38161;53.020;6.598;2023-05-10T00:54:54;13.00;99.90
52187;DHT22;38161;53.020;6.598;2023-05-10T00:57:21;13.00;99.90
52187;DHT22;38161;53.020;6.598;2023-05-10T00:59:46;12.90;99.90
52187;DHT22;38161;53.020;6.598;2023-05-10T01:02:13;13.00;99.90
52187;DHT22;38161;53.020;6.598;2023-05-10T01:04:39;12.90;99.90
52187;DHT22;38161;53.020;6.598;2023-05-10T01:07:05;13.00;99.90
52187;DHT22;38161;53.020;6.598;2023-05-10T01:09:31;13.00;99.90
52187;DHT22;38161;53.020;6.598;2023-05-10T01:11:57;12.90;99.90
52187;DHT22;38161;53.020;6.598;2023-05-10T01:14:23;12.90;99.90
52187;DHT22;38161;53.020;6.598;2023-05-10T01:16:50;13.00;99.90
52187;DHT22;38161;53.020;6.598;2023-05-10T01:19:28;12.90;99.90
52187;DHT22;38161;53.020;6.598;2023-05-10T01:22:30;12.90;99.90
52187;DHT22;38161;53.020;6.598;2023-05-10T01:28:25;12.80;99.90
52187;DHT22;38161;53.020;6.598;2023-05-10T01:34:31;12.80;99.90
52187;DHT22;38161;53.020;6.598;2023-05-10T01:39:44;12.70;99.90
52187;DHT22;38161;53.020;6.598;2023-05-10T01:42:16;12.70;99.90
52187;DHT22;38161;53.020;6.598;2023-05-10T01:44:50;12.70;99.90
52187;DHT22;38161;53.020;6.598;2023-05-10T01:50:02;12.70;99.90
52187;DHT22;38161;53.020;6.598;2023-05-10T01:52:33;12.70;99.90
52187;DHT22;38161;53.020;6.598;2023-05-10T01:55:08;12.70;99.90
52187;DHT22;38161;53.020;6.598;2023-05-10T01:57:36;12.70;99.90
52187;DHT22;38161;53.020;6.598;2023-05-10T02:00:06;12.70;99.90
52187;DHT22;38161;53.020;6.598;2023-05-10T02:02:36;12.70;99.90
52187;DHT22;38161;53.020;6.598;2023-05-10T02:05:05;12.80;99.90
52187;DHT22;38161;53.020;6.598;2023-05-10T02:07:33;12.80;99.90
52187;DHT22;38161;53.020;6.598;2023-05-10T02:10:00;12.70;99.90
52187;DHT22;38161;53.020;6.598;2023-05-10T02:12:26;12.70;99.90
52187;DHT22;38161;53.020;6.598;2023-05-10T02:14:54;12.70;99.90
52187;DHT22;38161;53.020;6.598;2023-05-10T02:17:21;12.70;99.90
52187;DHT22;38161;53.020;6.598;2023-05-10T02:19:47;12.70;99.90
52187;DHT22;38161;53.020;6.598;2023-05-10T02:22:13;12.70;99.90
52187;DHT22;38161;53.020;6.598;2023-05-10T02:24:41;12.70;99.90
52187;DHT22;38161;53.020;6.598;2023-05-10T02:27:07;12.70;99.90
52187;DHT22;38161;53.020;6.598;2023-05-10T02:29:34;12.70;99.90
52187;DHT22;38161;53.020;6.598;2023-05-10T02:32:01;12.70;99.90
52187;DHT22;38161;53.020;6.598;2023-05-10T02:34:27;12.70;99.90
52187;DHT22;38161;53.020;6.598;2023-05-10T02:36:54;12.70;99.90
52187;DHT22;38161;53.020;6.598;2023-05-10T02:39:22;12.70;99.90
52187;DHT22;38161;53.020;6.598;2023-05-10T02:41:49;12.70;99.90
52187;DHT22;38161;53.020;6.598;2023-05-10T02:44:18;12.60;99.90
52187;DHT22;38161;53.020;6.598;2023-05-10T02:46:45;12.70;99.90
52187;DHT22;38161;53.020;6.598;2023-05-10T02:49:11;12.70;99.90
52187;DHT22;38161;53.020;6.598;2023-05-10T02:51:40;12.70;99.90
52187;DHT22;38161;53.020;6.598;2023-05-10T02:54:11;12.70;99.90
52187;DHT22;38161;53.020;6.598;2023-05-10T02:56:45;12.70;99.90
52187;DHT22;38161;53.020;6.598;2023-05-10T02:59:12;12.70;99.90
52187;DHT22;38161;53.020;6.598;2023-05-10T03:01:38;12.60;99.90
52187;DHT22;38161;53.020;6.598;2023-05-10T03:04:04;12.60;99.90
52187;DHT22;38161;53.020;6.598;2023-05-10T03:06:30;12.60;99.90
52187;DHT22;38161;53.020;6.598;2023-05-10T03:08:56;12.60;99.90
52187;DHT22;38161;53.020;6.598;2023-05-10T03:11:57;12.60;99.90
52187;DHT22;38161;53.020;6.598;2023-05-10T03:15:11;12.60;99.90
52187;DHT22;38161;53.020;6.598;2023-05-10T03:18:01;12.60;99.90
52187;DHT22;38161;53.020;6.598;2023-05-10T03:20:43;12.60;99.90
52187;DHT22;38161;53.020;6.598;2023-05-10T03:25:42;12.60;99.90
52187;DHT22;38161;53.020;6.598;2023-05-10T03:28:09;12.60;99.90
52187;DHT22;38161;53.020;6.598;2023-05-10T03:30:35;12.60;99.90
52187;DHT22;38161;53.020;6.598;2023-05-10T03:33:05;12.60;99.90
52187;DHT22;38161;53.020;6.598;2023-05-10T03:35:34;12.60;99.90
52187;DHT22;38161;53.020;6.598;2023-05-10T03:38:01;12.60;99.90
52187;DHT22;38161;53.020;6.598;2023-05-10T03:40:27;12.60;99.90
52187;DHT22;38161;53.020;6.598;2023-05-10T03:42:55;12.60;99.90
52187;DHT22;38161;53.020;6.598;2023-05-10T03:45:21;12.60;99.90
52187;DHT22;38161;53.020;6.598;2023-05-10T03:47:46;12.50;99.90
52187;DHT22;38161;53.020;6.598;2023-05-10T03:50:12;12.50;99.90
52187;DHT22;38161;53.020;6.598;2023-05-10T03:52:38;12.50;99.90
52187;DHT22;38161;53.020;6.598;2023-05-10T03:55:07;12.50;99.90
52187;DHT22;38161;53.020;6.598;2023-05-10T03:57:33;12.50;99.90
52187;DHT22;38161;53.020;6.598;2023-05-10T03:59:59;12.50;99.90
52187;DHT22;38161;53.020;6.598;2023-05-10T04:02:25;12.50;99.90
52187;DHT22;38161;53.020;6.598;2023-05-10T04:04:51;12.50;99.90
52187;DHT22;38161;53.020;6.598;2023-05-10T04:07:17;12.50;99.90
52187;DHT22;38161;53.020;6.598;2023-05-10T04:09:43;12.50;99.90
52187;DHT22;38161;53.020;6.598;2023-05-10T04:12:09;12.40;99.90
52187;DHT22;38161;53.020;6.598;2023-05-10T04:14:35;12.40;99.90
52187;DHT22;38161;53.020;6.598;2023-05-10T04:17:01;12.40;99.90
52187;DHT22;38161;53.020;6.598;2023-05-10T04:19:32;12.40;99.90
52187;DHT22;38161;53.020;6.598;2023-05-10T04:21:58;12.40;99.90
52187;DHT22;38161;53.020;6.598;2023-05-10T04:24:24;12.40;99.90
52187;DHT22;38161;53.020;6.598;2023-05-10T04:26:51;12.40;99.90
52187;DHT22;38161;53.020;6.598;2023-05-10T04:29:19;12.40;99.90
52187;DHT22;38161;53.020;6.598;2023-05-10T04:31:44;12.40;99.90
52187;DHT22;38161;53.020;6.598;2023-05-10T04:34:10;12.40;99.90
52187;DHT22;38161;53.020;6.598;2023-05-10T04:36:36;12.40;99.90
52187;DHT22;38161;53.020;6.598;2023-05-10T04:39:03;12.40;99.90
52187;DHT22;38161;53.020;6.598;2023-05-10T04:41:29;12.40;99.90
52187;DHT22;38161;53.020;6.598;2023-05-10T04:43:55;12.40;99.90
52187;DHT22;38161;53.020;6.598;2023-05-10T04:46:21;12.40;99.90
52187;DHT22;38161;53.020;6.598;2023-05-10T04:48:47;12.40;99.90
52187;DHT22;38161;53.020;6.598;2023-05-10T04:51:13;12.40;99.90
52187;DHT22;38161;53.020;6.598;2023-05-10T04:53:38;12.40;99.90
52187;DHT22;38161;53.020;6.598;2023-05-10T04:56:04;12.40;99.90
52187;DHT22;38161;53.020;6.598;2023-05-10T04:58:30;12.30;99.90
52187;DHT22;38161;53.020;6.598;2023-05-10T05:00:56;12.40;99.90
52187;DHT22;38161;53.020;6.598;2023-05-10T05:03:22;12.30;99.90
52187;DHT22;38161;53.020;6.598;2023-05-10T05:05:48;12.30;99.90
52187;DHT22;38161;53.020;6.598;2023-05-10T05:08:13;12.30;99.90
52187;DHT22;38161;53.020;6.598;2023-05-10T05:10:39;12.30;99.90
52187;DHT22;38161;53.020;6.598;2023-05-10T05:13:05;12.30;99.90
52187;DHT22;38161;53.020;6.598;2023-05-10T05:15:31;12.30;99.90
52187;DHT22;38161;53.020;6.598;2023-05-10T05:17:59;12.30;99.90
52187;DHT22;38161;53.020;6.598;2023-05-10T05:20:25;12.30;99.90
52187;DHT22;38161;53.020;6.598;2023-05-10T05:22:51;12.30;99.90
52187;DHT22;38161;53.020;6.598;2023-05-10T05:25:16;12.30;99.90
52187;DHT22;38161;53.020;6.598;2023-05-10T05:27:42;12.30;99.90
52187;DHT22;38161;53.020;6.598;2023-05-10T05:30:08;12.30;99.90
52187;DHT22;38161;53.020;6.598;2023-05-10T05:32:34;12.30;99.90
52187;DHT22;38161;53.020;6.598;2023-05-10T05:35:00;12.40;99.90
52187;DHT22;38161;53.020;6.598;2023-05-10T05:37:26;12.30;99.90
52187;DHT22;38161;53.020;6.598;2023-05-10T05:39:54;12.40;99.90
52187;DHT22;38161;53.020;6.598;2023-05-10T05:42:20;12.30;99.90
52187;DHT22;38161;53.020;6.598;2023-05-10T05:44:47;12.40;99.90
52187;DHT22;38161;53.020;6.598;2023-05-10T05:47:12;12.40;99.90
52187;DHT22;38161;53.020;6.598;2023-05-10T05:49:38;12.40;99.90
52187;DHT22;38161;53.020;6.598;2023-05-10T05:52:04;12.40;99.90
52187;DHT22;38161;53.020;6.598;2023-05-10T05:54:31;12.40;99.90
52187;DHT22;38161;53.020;6.598;2023-05-10T05:56:58;12.40;99.90
52187;DHT22;38161;53.020;6.598;2023-05-10T05:59:24;12.40;99.90
52187;DHT22;38161;53.020;6.598;2023-05-10T06:01:50;12.40;99.90
52187;DHT22;38161;53.020;6.598;2023-05-10T06:04:16;12.30;99.90
52187;DHT22;38161;53.020;6.598;2023-05-10T06:06:42;12.30;99.90
52187;DHT22;38161;53.020;6.598;2023-05-10T06:09:08;12.40;99.90
52187;DHT22;38161;53.020;6.598;2023-05-10T06:11:35;12.40;99.90
52187;DHT22;38161;53.020;6.598;2023-05-10T06:14:01;12.40;99.90
52187;DHT22;38161;53.020;6.598;2023-05-10T06:16:27;12.40;99.90
52187;DHT22;38161;53.020;6.598;2023-05-10T06:18:54;12.40;99.90
52187;DHT22;38161;53.020;6.598;2023-05-10T06:21:19;12.40;99.90
52187;DHT22;38161;53.020;6.598;2023-05-10T06:23:45;12.40;99.90
52187;DHT22;38161;53.020;6.598;2023-05-10T06:26:11;12.50;99.90
52187;DHT22;38161;53.020;6.598;2023-05-10T06:28:37;12.50;99.90
52187;DHT22;38161;53.020;6.598;2023-05-10T06:31:06;12.50;99.90
52187;DHT22;38161;53.020;6.598;2023-05-10T06:33:32;12.50;99.90
52187;DHT22;38161;53.020;6.598;2023-05-10T06:35:58;12.50;99.90
52187;DHT22;38161;53.020;6.598;2023-05-10T06:38:24;12.50;99.90
52187;DHT22;38161;53.020;6.598;2023-05-10T06:40:50;12.50;99.90
52187;DHT22;38161;53.020;6.598;2023-05-10T06:43:16;12.60;99.90
52187;DHT22;38161;53.020;6.598;2023-05-10T06:45:42;12.50;99.90
52187;DHT22;38161;53.020;6.598;2023-05-10T06:48:08;12.50;99.90
52187;DHT22;38161;53.020;6.598;2023-05-10T06:50:34;12.60;99.90
52187;DHT22;38161;53.020;6.598;2023-05-10T06:53:00;12.60;99.90
52187;DHT22;38161;53.020;6.598;2023-05-10T06:55:27;12.60;99.90
52187;DHT22;38161;53.020;6.598;2023-05-10T06:57:53;12.60;99.90
52187;DHT22;38161;53.020;6.598;2023-05-10T07:00:19;12.50;99.90
52187;DHT22;38161;53.020;6.598;2023-05-10T07:02:45;12.50;99.90
52187;DHT22;38161;53.020;6.598;2023-05-10T07:05:12;12.60;99.90
52187;DHT22;38161;53.020;6.598;2023-05-10T07:07:38;12.60;99.90
52187;DHT22;38161;53.020;6.598;2023-05-10T07:10:04;12.60;99.90
52187;DHT22;38161;53.020;6.598;2023-05-10T07:12:30;12.60;99.90
52187;DHT22;38161;53.020;6.598;2023-05-10T07:14:56;12.60;99.90
52187;DHT22;38161;53.020;6.598;2023-05-10T07:17:21;12.70;99.90
52187;DHT22;38161;53.020;6.598;2023-05-10T07:19:47;12.60;99.90
52187;DHT22;38161;53.020;6.598;2023-05-10T07:22:14;12.70;99.90
52187;DHT22;38161;53.020;6.598;2023-05-10T07:24:40;12.60;99.90
52187;DHT22;38161;53.020;6.598;2023-05-10T07:27:06;12.70;99.90
52187;DHT22;38161;53.020;6.598;2023-05-10T07:29:33;12.70;99.90
52187;DHT22;38161;53.020;6.598;2023-05-10T07:31:59;12.70;99.90
52187;DHT22;38161;53.020;6.598;2023-05-10T07:34:25;12.80;99.90
52187;DHT22;38161;53.020;6.598;2023-05-10T07:36:51;12.80;99.90
52187;DHT22;38161;53.020;6.598;2023-05-10T07:39:17;12.80;99.90
52187;DHT22;38161;53.020;6.598;2023-05-10T07:41:43;12.90;99.90
52187;DHT22;38161;53.020;6.598;2023-05-10T07:44:09;12.90;99.90
52187;DHT22;38161;53.020;6.598;2023-05-10T07:46:34;12.90;99.90
52187;DHT22;38161;53.020;6.598;2023-05-10T07:49:00;13.00;99.90
52187;DHT22;38161;53.020;6.598;2023-05-10T07:51:29;13.00;99.90
52187;DHT22;38161;53.020;6.598;2023-05-10T07:53:55;13.00;99.90
52187;DHT22;38161;53.020;6.598;2023-05-10T07:56:31;13.00;99.90
52187;DHT22;38161;53.020;6.598;2023-05-10T07:59:02;13.20;99.90
52187;DHT22;38161;53.020;6.598;2023-05-10T08:01:33;13.00;99.90
52187;DHT22;38161;53.020;6.598;2023-05-10T08:04:00;13.00;99.90
52187;DHT22;38161;53.020;6.598;2023-05-10T08:06:26;13.00;99.90
52187;DHT22;38161;53.020;6.598;2023-05-10T08:08:53;12.90;99.90
52187;DHT22;38161;53.020;6.598;2023-05-10T08:11:23;13.00;99.90
52187;DHT22;38161;53.020;6.598;2023-05-10T08:13:50;13.00;99.90
52187;DHT22;38161;53.020;6.598;2023-05-10T08:16:16;13.00;99.90
52187;DHT22;38161;53.020;6.598;2023-05-10T08:18:42;13.00;99.90
52187;DHT22;38161;53.020;6.598;2023-05-10T08:21:08;13.00;99.90
52187;DHT22;38161;53.020;6.598;2023-05-10T08:23:36;13.00;99.90
52187;DHT22;38161;53.020;6.598;2023-05-10T08:26:02;13.00;99.90
52187;DHT22;38161;53.020;6.598;2023-05-10T08:28:28;13.00;99.90
52187;DHT22;38161;53.020;6.598;2023-05-10T08:30:54;13.00;99.90
52187;DHT22;38161;53.020;6.598;2023-05-10T08:33:20;13.10;99.90
52187;DHT22;38161;53.020;6.598;2023-05-10T08:35:46;13.10;99.90
52187;DHT22;38161;53.020;6.598;2023-05-10T08:38:12;13.10;99.90
52187;DHT22;38161;53.020;6.598;2023-05-10T08:40:41;13.20;99.90
52187;DHT22;38161;53.020;6.598;2023-05-10T08:43:10;13.20;99.90
52187;DHT22;38161;53.020;6.598;2023-05-10T08:45:39;13.20;99.90
52187;DHT22;38161;53.020;6.598;2023-05-10T08:48:06;13.20;99.90
52187;DHT22;38161;53.020;6.598;2023-05-10T08:50:35;13.20;99.90
52187;DHT22;38161;53.020;6.598;2023-05-10T08:53:04;13.20;99.90
52187;DHT22;38161;53.020;6.598;2023-05-10T08:55:32;13.10;99.90
52187;DHT22;38161;53.020;6.598;2023-05-10T08:58:00;13.10;99.90
52187;DHT22;38161;53.020;6.598;2023-05-10T09:00:26;13.10;99.90
52187;DHT22;38161;53.020;6.598;2023-05-10T09:02:53;13.10;99.90
52187;DHT22;38161;53.020;6.598;2023-05-10T09:05:19;13.10;99.90
52187;DHT22;38161;53.020;6.598;2023-05-10T09:07:45;13.20;99.90
52187;DHT22;38161;53.020;6.598;2023-05-10T09:10:11;13.20;99.90
52187;DHT22;38161;53.020;6.598;2023-05-10T09:12:38;13.30;99.90
52187;DHT22;38161;53.020;6.598;2023-05-10T09:15:05;13.30;99.90
52187;DHT22;38161;53.020;6.598;2023-05-10T09:17:32;13.40;99.90
52187;DHT22;38161;53.020;6.598;2023-05-10T09:19:59;13.50;99.90
52187;DHT22;38161;53.020;6.598;2023-05-10T09:22:26;13.50;99.90
52187;DHT22;38161;53.020;6.598;2023-05-10T09:25:14;13.50;99.90
52187;DHT22;38161;53.020;6.598;2023-05-10T09:27:43;13.60;99.90
52187;DHT22;38161;53.020;6.598;2023-05-10T09:30:14;13.50;99.90
52187;DHT22;38161;53.020;6.598;2023-05-10T09:32:45;13.60;99.90
52187;DHT22;38161;53.020;6.598;2023-05-10T09:35:16;13.50;99.90
52187;DHT22;38161;53.020;6.598;2023-05-10T09:37:47;13.50;99.90
52187;DHT22;38161;53.020;6.598;2023-05-10T09:40:18;13.50;99.90
52187;DHT22;38161;53.020;6.598;2023-05-10T09:42:57;13.60;99.90
52187;DHT22;38161;53.020;6.598;2023-05-10T09:45:27;13.60;99.90
52187;DHT22;38161;53.020;6.598;2023-05-10T09:47:53;13.70;99.90
52187;DHT22;38161;53.020;6.598;2023-05-10T09:50:20;13.90;99.90
52187;DHT22;38161;53.020;6.598;2023-05-10T09:53:07;14.00;99.90
52187;DHT22;38161;53.020;6.598;2023-05-10T09:55:45;14.10;99.90
52187;DHT22;38161;53.020;6.598;2023-05-10T09:58:13;14.10;99.90
52187;DHT22;38161;53.020;6.598;2023-05-10T10:00:44;14.10;99.90
52187;DHT22;38161;53.020;6.598;2023-05-10T10:03:18;14.00;99.90
52187;DHT22;38161;53.020;6.598;2023-05-10T10:05:45;14.00;99.90
52187;DHT22;38161;53.020;6.598;2023-05-10T10:08:12;13.90;99.90
52187;DHT22;38161;53.020;6.598;2023-05-10T10:10:38;13.90;99.90
52187;DHT22;38161;53.020;6.598;2023-05-10T10:13:06;13.90;99.90
52187;DHT22;38161;53.020;6.598;2023-05-10T10:15:32;13.90;99.90
52187;DHT22;38161;53.020;6.598;2023-05-10T10:17:58;13.90;99.90
52187;DHT22;38161;53.020;6.598;2023-05-10T10:20:26;13.90;99.90
52187;DHT22;38161;53.020;6.598;2023-05-10T10:22:52;14.00;99.90
52187;DHT22;38161;53.020;6.598;2023-05-10T10:25:20;14.00;99.90
52187;DHT22;38161;53.020;6.598;2023-05-10T10:35:38;14.10;99.90
52187;DHT22;38161;53.020;6.598;2023-05-10T10:38:08;14.20;99.90
52187;DHT22;38161;53.020;6.598;2023-05-10T10:40:34;14.20;99.90
52187;DHT22;38161;53.020;6.598;2023-05-10T10:43:25;14.20;99.90
52187;DHT22;38161;53.020;6.598;2023-05-10T10:46:17;14.20;99.90
52187;DHT22;38161;53.020;6.598;2023-05-10T10:49:09;14.20;99.90
52187;DHT22;38161;53.020;6.598;2023-05-10T10:51:39;14.20;99.90
52187;DHT22;38161;53.020;6.598;2023-05-10T10:54:11;14.30;99.90
52187;DHT22;38161;53.020;6.598;2023-05-10T10:56:37;14.30;99.90
52187;DHT22;38161;53.020;6.598;2023-05-10T10:59:03;14.40;99.90
52187;DHT22;38161;53.020;6.598;2023-05-10T11:01:35;14.40;99.90
52187;DHT22;38161;53.020;6.598;2023-05-10T11:08:57;14.50;99.90
52187;DHT22;38161;53.020;6.598;2023-05-10T11:11:23;14.50;99.90
52187;DHT22;38161;53.020;6.598;2023-05-10T11:13:49;14.50;99.90
52187;DHT22;38161;53.020;6.598;2023-05-10T11:16:22;14.40;99.90
52187;DHT22;38161;53.020;6.598;2023-05-10T11:18:53;14.50;99.90
52187;DHT22;38161;53.020;6.598;2023-05-10T11:21:19;14.50;99.90
52187;DHT22;38161;53.020;6.598;2023-05-10T11:23:50;14.50;99.90
52187;DHT22;38161;53.020;6.598;2023-05-10T11:26:17;14.50;99.90
52187;DHT22;38161;53.020;6.598;2023-05-10T11:28:43;14.60;99.90
52187;DHT22;38161;53.020;6.598;2023-05-10T11:31:09;14.60;99.90
52187;DHT22;38161;53.020;6.598;2023-05-10T11:33:46;14.70;99.90
52187;DHT22;38161;53.020;6.598;2023-05-10T11:36:15;14.70;99.90
52187;DHT22;38161;53.020;6.598;2023-05-10T11:38:41;14.70;99.90
52187;DHT22;38161;53.020;6.598;2023-05-10T11:41:10;14.70;99.90
52187;DHT22;38161;53.020;6.598;2023-05-10T11:43:40;14.70;99.90
52187;DHT22;38161;53.020;6.598;2023-05-10T11:46:11;14.70;99.90
52187;DHT22;38161;53.020;6.598;2023-05-10T11:48:40;14.80;99.90
52187;DHT22;38161;53.020;6.598;2023-05-10T11:51:10;14.80;99.90
52187;DHT22;38161;53.020;6.598;2023-05-10T11:53:36;14.80;99.90
52187;DHT22;38161;53.020;6.598;2023-05-10T11:56:09;14.80;99.90
52187;DHT22;38161;53.020;6.598;2023-05-10T11:58:37;14.80;99.90
52187;DHT22;38161;53.020;6.598;2023-05-10T12:01:04;14.80;99.90
52187;DHT22;38161;53.020;6.598;2023-05-10T12:03:30;14.80;99.90
52187;DHT22;38161;53.020;6.598;2023-05-10T12:05:57;14.80;99.90
52187;DHT22;38161;53.020;6.598;2023-05-10T12:08:24;14.70;99.90
52187;DHT22;38161;53.020;6.598;2023-05-10T12:10:51;14.70;99.90
52187;DHT22;38161;53.020;6.598;2023-05-10T12:13:19;14.60;99.90
52187;DHT22;38161;53.020;6.598;2023-05-10T12:15:46;14.70;99.90
52187;DHT22;38161;53.020;6.598;2023-05-10T12:18:13;14.60;99.90
52187;DHT22;38161;53.020;6.598;2023-05-10T12:20:40;14.60;99.90
52187;DHT22;38161;53.020;6.598;2023-05-10T12:23:08;14.60;99.90
52187;DHT22;38161;53.020;6.598;2023-05-10T12:25:36;14.60;99.90
52187;DHT22;38161;53.020;6.598;2023-05-10T12:28:07;14.60;99.90
52187;DHT22;38161;53.020;6.598;2023-05-10T12:30:34;14.70;99.90
52187;DHT22;38161;53.020;6.598;2023-05-10T12:33:13;14.70;99.90
52187;DHT22;38161;53.020;6.598;2023-05-10T12:35:53;14.60;99.90
52187;DHT22;38161;53.020;6.598;2023-05-10T12:38:27;14.60;99.90
52187;DHT22;38161;53.020;6.598;2023-05-10T12:41:02;14.60;99.90
52187;DHT22;38161;53.020;6.598;2023-05-10T12:43:29;14.60;99.90
52187;DHT22;38161;53.020;6.598;2023-05-10T12:45:56;14.60;99.90
52187;DHT22;38161;53.020;6.598;2023-05-10T12:48:22;14.70;99.90
52187;DHT22;38161;53.020;6.598;2023-05-10T12:50:47;14.70;99.90
52187;DHT22;38161;53.020;6.598;2023-05-10T12:53:14;14.70;99.90
52187;DHT22;38161;53.020;6.598;2023-05-10T12:55:43;14.70;99.90
52187;DHT22;38161;53.020;6.598;2023-05-10T12:58:10;14.80;99.90
52187;DHT22;38161;53.020;6.598;2023-05-10T13:00:36;14.80;99.90
52187;DHT22;38161;53.020;6.598;2023-05-10T13:03:04;14.80;99.90
52187;DHT22;38161;53.020;6.598;2023-05-10T13:05:32;14.80;99.90
52187;DHT22;38161;53.020;6.598;2023-05-10T13:07:58;14.80;99.90
52187;DHT22;38161;53.020;6.598;2023-05-10T13:10:24;14.80;99.90
52187;DHT22;38161;53.020;6.598;2023-05-10T13:12:50;14.80;99.90
52187;DHT22;38161;53.020;6.598;2023-05-10T13:15:18;14.70;99.90
52187;DHT22;38161;53.020;6.598;2023-05-10T13:17:44;14.70;99.90
52187;DHT22;38161;53.020;6.598;2023-05-10T13:20:11;14.70;99.90
52187;DHT22;38161;53.020;6.598;2023-05-10T13:22:36;14.70;99.90
52187;DHT22;38161;53.020;6.598;2023-05-10T13:25:02;14.70;99.90
52187;DHT22;38161;53.020;6.598;2023-05-10T13:27:28;14.70;99.90
52187;DHT22;38161;53.020;6.598;2023-05-10T13:29:54;14.70;99.90
52187;DHT22;38161;53.020;6.598;2023-05-10T13:32:20;14.70;99.90
52187;DHT22;38161;53.020;6.598;2023-05-10T13:34:46;14.70;99.90
52187;DHT22;38161;53.020;6.598;2023-05-10T13:37:12;14.70;99.90
52187;DHT22;38161;53.020;6.598;2023-05-10T13:39:38;14.70;99.90
52187;DHT22;38161;53.020;6.598;2023-05-10T13:42:04;14.70;99.90
52187;DHT22;38161;53.020;6.598;2023-05-10T13:44:30;14.80;99.90
52187;DHT22;38161;53.020;6.598;2023-05-10T13:46:56;14.80;99.90
52187;DHT22;38161;53.020;6.598;2023-05-10T13:49:22;14.80;99.90
52187;DHT22;38161;53.020;6.598;2023-05-10T13:51:48;14.90;99.90
52187;DHT22;38161;53.020;6.598;2023-05-10T13:54:14;14.90;99.90
52187;DHT22;38161;53.020;6.598;2023-05-10T13:56:41;15.00;99.90
52187;DHT22;38161;53.020;6.598;2023-05-10T13:59:08;15.00;99.90
52187;DHT22;38161;53.020;6.598;2023-05-10T14:01:34;15.00;99.90
52187;DHT22;38161;53.020;6.598;2023-05-10T14:04:00;15.10;99.90
52187;DHT22;38161;53.020;6.598;2023-05-10T14:06:25;15.10;99.90
52187;DHT22;38161;53.020;6.598;2023-05-10T14:08:53;15.20;99.90
52187;DHT22;38161;53.020;6.598;2023-05-10T14:11:19;15.20;99.90
52187;DHT22;38161;53.020;6.598;2023-05-10T14:13:45;15.20;99.90
52187;DHT22;38161;53.020;6.598;2023-05-10T14:16:11;15.30;99.90
52187;DHT22;38161;53.020;6.598;2023-05-10T14:18:37;15.30;99.90
52187;DHT22;38161;53.020;6.598;2023-05-10T14:21:03;15.20;99.90
52187;DHT22;38161;53.020;6.598;2023-05-10T14:23:29;15.30;99.90
52187;DHT22;38161;53.020;6.598;2023-05-10T14:25:55;15.20;99.90
52187;DHT22;38161;53.020;6.598;2023-05-10T14:28:21;15.20;99.90
52187;DHT22;38161;53.020;6.598;2023-05-10T14:30:49;15.20;99.90
52187;DHT22;38161;53.020;6.598;2023-05-10T14:33:16;15.30;99.90
52187;DHT22;38161;53.020;6.598;2023-05-10T14:35:42;15.30;99.90
52187;DHT22;38161;53.020;6.598;2023-05-10T14:38:08;15.30;99.90
52187;DHT22;38161;53.020;6.598;2023-05-10T14:40:34;15.20;99.90
52187;DHT22;38161;53.020;6.598;2023-05-10T14:43:00;15.20;99.90
52187;DHT22;38161;53.020;6.598;2023-05-10T14:45:26;15.20;99.90
52187;DHT22;38161;53.020;6.598;2023-05-10T14:47:52;15.20;99.90
52187;DHT22;38161;53.020;6.598;2023-05-10T14:50:18;15.20;99.90
52187;DHT22;38161;53.020;6.598;2023-05-10T14:52:44;15.30;99.90
52187;DHT22;38161;53.020;6.598;2023-05-10T14:55:10;15.30;99.90
52187;DHT22;38161;53.020;6.598;2023-05-10T14:57:36;15.30;99.90
52187;DHT22;38161;53.020;6.598;2023-05-10T15:00:03;15.30;99.90
52187;DHT22;38161;53.020;6.598;2023-05-10T15:02:30;15.30;99.90
52187;DHT22;38161;53.020;6.598;2023-05-10T15:04:56;15.40;99.90
52187;DHT22;38161;53.020;6.598;2023-05-10T15:07:23;15.40;99.90
52187;DHT22;38161;53.020;6.598;2023-05-10T15:09:50;15.40;99.90
52187;DHT22;38161;53.020;6.598;2023-05-10T15:12:17;15.40;99.90
52187;DHT22;38161;53.020;6.598;2023-05-10T15:14:43;15.40;99.90
52187;DHT22;38161;53.020;6.598;2023-05-10T15:17:09;15.40;99.90
52187;DHT22;38161;53.020;6.598;2023-05-10T15:19:35;15.40;99.90
52187;DHT22;38161;53.020;6.598;2023-05-10T15:22:02;15.40;99.90
52187;DHT22;38161;53.020;6.598;2023-05-10T15:24:28;15.50;99.90
52187;DHT22;38161;53.020;6.598;2023-05-10T15:26:54;15.40;99.90
52187;DHT22;38161;53.020;6.598;2023-05-10T15:29:20;15.40;99.90
52187;DHT22;38161;53.020;6.598;2023-05-10T15:31:50;15.40;99.90
52187;DHT22;38161;53.020;6.598;2023-05-10T15:34:16;15.40;99.90
52187;DHT22;38161;53.020;6.598;2023-05-10T15:36:43;15.40;99.90
52187;DHT22;38161;53.020;6.598;2023-05-10T15:39:10;15.40;99.90
52187;DHT22;38161;53.020;6.598;2023-05-10T15:41:36;15.40;99.90
52187;DHT22;38161;53.020;6.598;2023-05-10T15:44:02;15.40;99.90
52187;DHT22;38161;53.020;6.598;2023-05-10T15:46:29;15.40;99.90
52187;DHT22;38161;53.020;6.598;2023-05-10T15:48:55;15.40;99.90
52187;DHT22;38161;53.020;6.598;2023-05-10T15:51:21;15.40;99.90
52187;DHT22;38161;53.020;6.598;2023-05-10T15:53:47;15.50;99.90
52187;DHT22;38161;53.020;6.598;2023-05-10T15:56:14;15.50;99.90
52187;DHT22;38161;53.020;6.598;2023-05-10T15:58:40;15.50;99.90
52187;DHT22;38161;53.020;6.598;2023-05-10T16:01:06;15.50;99.90